Time;durP1;ratioP1;P1;durP2;ratioP2;P2;SDS_P1;SDS_P2;PMS_P1;PMS_P2;Temp;Humidity;BMP_temperature;BMP_pressure;BME280_temperature;BME280_humidity;BME280_pressure;Samples;Min_cycle;Max_cycle;Signal;HPM_P1;HPM_P2
2021/03/13 00:00:25;;;;;;;4.13;2.33;;;;;;;;;;5091852;28;20210;-74
2021/03/13 00:02:52;;;;;;;7.70;2.70;;;;;;;;;;5093249;28;20643;-74
2021/03/13 00:05:22;;;;;;;10.67;2.53;;;;;;;;;;5088770;28;20196;-74
2021/03/13 00:07:49;;;;;;;4.67;2.27;;;;;;;;;;5089448;28;20808;-74
2021/03/13 00:10:16;;;;;;;4.72;1.95;;;;;;;;;;5090758;28;20445;-73
2021/03/13 00:12:43;;;;;;;4.67;2.30;;;;;;;;;;5089937;28;20729;-74
2021/03/13 00:15:14;;;;;;;4.37;3.10;;;;;;;;;;5089881;28;20454;-74
2021/03/13 00:17:42;;;;;;;6.63;3.90;;;;;;;;;;5086481;28;20549;-74
2021/03/13 00:20:09;;;;;;;6.93;3.00;;;;;;;;;;5092996;28;20224;-74
2021/03/13 00:22:36;;;;;;;5.65;2.63;;;;;;;;;;5092515;28;20278;-74
2021/03/13 00:25:03;;;;;;;6.00;1.92;;;;;;;;;;5091833;28;20287;-74
2021/03/13 00:27:30;;;;;;;6.88;2.00;;;;;;;;;;5089939;28;20202;-74
2021/03/13 00:29:56;;;;;;;2.75;1.40;;;;;;;;;;5088437;28;20213;-75
2021/03/13 00:32:23;;;;;;;4.93;1.63;;;;;;;;;;5090257;28;20200;-73
2021/03/13 00:34:52;;;;;;;4.43;1.60;;;;;;;;;;5090790;28;20214;-74
2021/03/13 00:37:20;;;;;;;4.18;1.50;;;;;;;;;;5082962;28;20200;-73
2021/03/13 00:39:47;;;;;;;1.87;1.67;;;;;;;;;;5090223;28;20647;-74
2021/03/13 00:42:13;;;;;;;3.70;1.20;;;;;;;;;;5091533;28;20532;-74
2021/03/13 00:44:40;;;;;;;5.25;2.55;;;;;;;;;;5092308;28;20211;-74
2021/03/13 00:47:07;;;;;;;5.60;1.73;;;;;;;;;;5092562;28;20244;-74
2021/03/13 00:49:34;;;;;;;7.10;2.03;;;;;;;;;;5090761;28;20209;-74
2021/03/13 00:52:02;;;;;;;4.22;1.80;;;;;;;;;;5087741;28;20551;-74
2021/03/13 00:54:28;;;;;;;4.50;2.00;;;;;;;;;;5089230;28;20229;-74
2021/03/13 00:56:55;;;;;;;6.68;2.53;;;;;;;;;;5082343;28;20198;-74
2021/03/13 00:59:22;;;;;;;4.50;1.90;;;;;;;;;;5082630;28;20251;-74
2021/03/13 01:01:49;;;;;;;4.55;2.03;;;;;;;;;;5090830;28;20284;-74
2021/03/13 01:04:16;;;;;;;7.18;2.60;;;;;;;;;;5084536;28;20572;-75
2021/03/13 01:06:42;;;;;;;6.50;3.07;;;;;;;;;;5091838;28;20238;-73
2021/03/13 01:09:10;;;;;;;7.60;2.45;;;;;;;;;;5085263;28;20482;-73
2021/03/13 01:11:37;;;;;;;9.15;2.97;;;;;;;;;;5090305;28;20247;-73
2021/03/13 01:14:04;;;;;;;3.85;2.05;;;;;;;;;;5087437;28;20228;-73
2021/03/13 01:16:31;;;;;;;5.85;2.47;;;;;;;;;;5087922;28;20215;-74
2021/03/13 01:18:58;;;;;;;7.03;2.75;;;;;;;;;;5089961;28;20192;-74
2021/03/13 01:21:25;;;;;;;4.20;2.22;;;;;;;;;;5089830;28;20224;-74
2021/03/13 01:23:51;;;;;;;8.93;2.58;;;;;;;;;;5086119;28;20225;-73
2021/03/13 01:26:19;;;;;;;3.50;2.17;;;;;;;;;;5086577;28;20650;-74
2021/03/13 01:28:47;;;;;;;4.57;2.65;;;;;;;;;;5084301;28;20213;-73
2021/03/13 01:31:14;;;;;;;5.13;2.10;;;;;;;;;;5092029;28;20195;-73
2021/03/13 01:33:41;;;;;;;7.45;2.38;;;;;;;;;;5082953;28;20237;-73
2021/03/13 01:36:08;;;;;;;5.53;2.05;;;;;;;;;;5087623;28;20244;-73
2021/03/13 01:38:35;;;;;;;2.83;2.40;;;;;;;;;;5088345;28;20210;-74
2021/03/13 01:41:02;;;;;;;4.75;2.22;;;;;;;;;;5090017;28;20192;-74
2021/03/13 01:43:30;;;;;;;4.30;2.25;;;;;;;;;;5089516;28;20305;-75
2021/03/13 01:45:57;;;;;;;6.35;2.40;;;;;;;;;;5090036;28;20244;-74
2021/03/13 01:48:28;;;;;;;2.90;1.92;;;;;;;;;;5091287;28;20203;-74
2021/03/13 01:50:55;;;;;;;4.03;2.10;;;;;;;;;;5083642;28;20199;-73
2021/03/13 01:53:22;;;;;;;4.70;2.30;;;;;;;;;;5083766;28;20237;-75
2021/03/13 01:55:48;;;;;;;4.07;2.00;;;;;;;;;;5091236;28;20286;-73
2021/03/13 01:58:15;;;;;;;5.05;2.17;;;;;;;;;;5088352;28;20235;-73
2021/03/13 02:00:43;;;;;;;1.88;1.67;;;;;;;;;;5086466;28;20287;-73
2021/03/13 02:03:10;;;;;;;4.15;2.22;;;;;;;;;;5088586;28;20569;-74
2021/03/13 02:05:39;;;;;;;3.10;2.33;;;;;;;;;;5089155;28;20409;-73
2021/03/13 02:08:10;;;;;;;3.08;2.22;;;;;;;;;;5088682;28;20588;-74
2021/03/13 02:10:39;;;;;;;2.35;1.80;;;;;;;;;;5082314;28;20239;-74
2021/03/13 02:13:09;;;;;;;3.47;1.73;;;;;;;;;;5091307;28;20647;-73
2021/03/13 02:15:42;;;;;;;3.08;2.05;;;;;;;;;;5090692;28;20210;-74
2021/03/13 02:18:14;;;;;;;2.20;1.97;;;;;;;;;;5085125;28;20219;-75
2021/03/13 02:20:56;;;;;;;3.70;1.90;;;;;;;;;;5087053;28;20443;-73
2021/03/13 02:23:24;;;;;;;4.18;1.85;;;;;;;;;;5080862;28;20246;-74
2021/03/13 02:25:55;;;;;;;1.98;1.70;;;;;;;;;;5092710;28;20199;-74
2021/03/13 02:28:25;;;;;;;1.90;1.33;;;;;;;;;;5093530;28;20279;-75
2021/03/13 02:30:54;;;;;;;2.85;1.60;;;;;;;;;;5090477;28;20217;-73
2021/03/13 02:33:24;;;;;;;2.22;1.17;;;;;;;;;;5092371;28;20214;-73
2021/03/13 02:35:56;;;;;;;1.95;1.50;;;;;;;;;;5094902;28;20518;-76
2021/03/13 02:38:26;;;;;;;1.45;1.27;;;;;;;;;;5094731;28;20230;-76
2021/03/13 02:40:55;;;;;;;1.65;1.30;;;;;;;;;;5092407;28;20675;-75
2021/03/13 02:43:23;;;;;;;1.75;1.38;;;;;;;;;;5091328;28;20267;-75
2021/03/13 02:45:51;;;;;;;1.38;1.13;;;;;;;;;;5090682;28;20599;-75
2021/03/13 02:48:19;;;;;;;1.00;0.90;;;;;;;;;;5092754;28;20201;-73
2021/03/13 02:50:49;;;;;;;1.17;1.00;;;;;;;;;;5092558;28;20246;-75
2021/03/13 02:53:17;;;;;;;1.38;1.10;;;;;;;;;;5085697;28;20717;-73
2021/03/13 02:55:44;;;;;;;2.30;1.20;;;;;;;;;;5093763;28;20205;-73
2021/03/13 02:58:11;;;;;;;2.03;1.00;;;;;;;;;;5094428;28;20294;-74
2021/03/13 03:00:39;;;;;;;1.60;1.17;;;;;;;;;;5094418;28;20668;-74
2021/03/13 03:03:07;;;;;;;1.42;1.13;;;;;;;;;;5094202;28;20222;-73
2021/03/13 03:05:36;;;;;;;1.65;1.10;;;;;;;;;;5091612;28;20225;-74
2021/03/13 03:08:04;;;;;;;1.25;1.00;;;;;;;;;;5089990;28;20218;-73
2021/03/13 03:10:32;;;;;;;1.25;1.10;;;;;;;;;;5092171;28;20211;-75
2021/03/13 03:12:59;;;;;;;1.20;0.90;;;;;;;;;;5091487;28;20274;-75
2021/03/13 03:15:27;;;;;;;1.10;0.90;;;;;;;;;;5092450;28;20594;-76
2021/03/13 03:17:55;;;;;;;1.08;0.98;;;;;;;;;;5092999;28;20635;-73
2021/03/13 03:20:22;;;;;;;1.30;0.93;;;;;;;;;;5093951;28;20196;-74
2021/03/13 03:22:50;;;;;;;1.63;0.80;;;;;;;;;;5093955;28;20199;-74
2021/03/13 03:25:17;;;;;;;1.85;1.10;;;;;;;;;;5093894;28;20221;-74
2021/03/13 03:27:51;;;;;;;3.38;1.10;;;;;;;;;;5092012;28;20939;-74
2021/03/13 03:30:20;;;;;;;0.95;0.82;;;;;;;;;;5089713;28;20202;-73
2021/03/13 03:32:47;;;;;;;1.05;0.85;;;;;;;;;;5091224;28;20681;-75
2021/03/13 03:35:14;;;;;;;2.25;1.73;;;;;;;;;;5091876;28;20278;-74
2021/03/13 03:37:41;;;;;;;1.75;0.90;;;;;;;;;;5092105;28;20197;-74
2021/03/13 03:40:10;;;;;;;0.90;0.80;;;;;;;;;;5090958;28;20210;-73
2021/03/13 03:42:39;;;;;;;1.20;0.85;;;;;;;;;;5093635;28;20195;-74
2021/03/13 03:45:07;;;;;;;0.90;0.75;;;;;;;;;;5091225;28;20255;-74
2021/03/13 03:47:34;;;;;;;0.90;0.80;;;;;;;;;;5093525;28;20206;-74
2021/03/13 03:50:01;;;;;;;1.00;0.77;;;;;;;;;;5090988;28;20222;-74
2021/03/13 03:52:28;;;;;;;1.25;0.80;;;;;;;;;;5089282;28;20244;-74
2021/03/13 03:54:55;;;;;;;0.90;0.70;;;;;;;;;;5090799;28;20218;-74
2021/03/13 03:57:23;;;;;;;1.30;0.80;;;;;;;;;;5083681;28;20199;-74
2021/03/13 03:59:51;;;;;;;2.75;0.90;;;;;;;;;;5090955;28;20286;-74
2021/03/13 04:02:21;;;;;;;1.08;0.80;;;;;;;;;;5091813;28;20208;-75
2021/03/13 04:04:49;;;;;;;1.65;0.98;;;;;;;;;;5093190;28;20211;-74
2021/03/13 04:07:15;;;;;;;1.40;0.80;;;;;;;;;;5092021;28;20210;-73
2021/03/13 04:09:42;;;;;;;0.90;0.73;;;;;;;;;;5093096;28;20719;-76
2021/03/13 04:12:10;;;;;;;1.42;0.95;;;;;;;;;;5091932;28;20202;-75
2021/03/13 04:14:38;;;;;;;1.70;0.77;;;;;;;;;;5088128;28;20246;-74
2021/03/13 04:17:05;;;;;;;1.88;0.85;;;;;;;;;;5089773;28;20217;-75
2021/03/13 04:19:32;;;;;;;1.45;0.95;;;;;;;;;;5090998;28;20197;-74
2021/03/13 04:21:59;;;;;;;1.77;0.90;;;;;;;;;;5090247;28;20216;-75
2021/03/13 04:24:27;;;;;;;1.10;0.80;;;;;;;;;;5084024;28;20253;-74
2021/03/13 04:26:54;;;;;;;2.20;0.70;;;;;;;;;;5092530;28;20278;-74
2021/03/13 04:29:21;;;;;;;1.02;0.90;;;;;;;;;;5085325;28;20248;-74
2021/03/13 04:31:49;;;;;;;2.30;1.00;;;;;;;;;;5092884;28;20201;-75
2021/03/13 04:34:17;;;;;;;2.15;0.90;;;;;;;;;;5091084;28;20214;-75
2021/03/13 04:36:45;;;;;;;1.70;0.80;;;;;;;;;;5088755;28;20199;-75
2021/03/13 04:39:12;;;;;;;1.65;1.25;;;;;;;;;;5086631;28;20252;-74
2021/03/13 04:41:39;;;;;;;1.00;0.85;;;;;;;;;;5084320;28;20648;-74
2021/03/13 04:44:06;;;;;;;1.65;0.90;;;;;;;;;;5090260;28;20584;-73
2021/03/13 04:46:34;;;;;;;2.75;0.90;;;;;;;;;;5090331;28;20199;-74
2021/03/13 04:49:04;;;;;;;1.90;1.00;;;;;;;;;;5082936;28;20240;-75
2021/03/13 04:51:30;;;;;;;2.30;1.10;;;;;;;;;;5084624;28;20241;-74
2021/03/13 04:53:57;;;;;;;1.50;1.00;;;;;;;;;;5091904;28;20747;-74
2021/03/13 04:56:24;;;;;;;2.30;0.90;;;;;;;;;;5092305;28;20711;-74
2021/03/13 04:58:51;;;;;;;0.93;0.80;;;;;;;;;;5088864;28;20692;-74
2021/03/13 05:01:18;;;;;;;1.15;0.90;;;;;;;;;;5087381;28;20562;-74
2021/03/13 05:03:45;;;;;;;0.98;0.85;;;;;;;;;;5090273;28;20306;-75
2021/03/13 05:06:13;;;;;;;1.70;0.95;;;;;;;;;;5089121;28;20704;-75
2021/03/13 05:08:40;;;;;;;1.35;0.90;;;;;;;;;;5090199;28;20240;-74
2021/03/13 05:11:08;;;;;;;1.30;0.90;;;;;;;;;;5091229;28;20554;-74
2021/03/13 05:13:35;;;;;;;1.35;1.02;;;;;;;;;;5076486;28;20502;-75
2021/03/13 05:16:02;;;;;;;3.00;1.05;;;;;;;;;;5091277;28;20615;-75
2021/03/13 05:18:29;;;;;;;1.63;0.90;;;;;;;;;;5083109;28;20223;-76
2021/03/13 05:20:56;;;;;;;1.63;0.80;;;;;;;;;;5089781;28;20199;-75
2021/03/13 05:23:23;;;;;;;2.63;1.00;;;;;;;;;;5087560;28;20707;-75
2021/03/13 05:25:50;;;;;;;1.48;0.90;;;;;;;;;;5089702;28;20203;-73
2021/03/13 05:28:17;;;;;;;2.87;1.00;;;;;;;;;;5088725;28;20218;-74
2021/03/13 05:30:44;;;;;;;2.00;1.00;;;;;;;;;;5089783;28;20458;-74
2021/03/13 05:33:11;;;;;;;1.40;0.90;;;;;;;;;;5086832;28;20472;-74
2021/03/13 05:35:39;;;;;;;1.67;0.70;;;;;;;;;;5091600;28;20198;-74
2021/03/13 05:38:06;;;;;;;1.20;0.68;;;;;;;;;;5091993;28;20881;-74
2021/03/13 05:40:34;;;;;;;1.13;0.80;;;;;;;;;;5088175;28;20211;-74
2021/03/13 05:43:01;;;;;;;0.90;0.80;;;;;;;;;;5087496;28;20533;-75
2021/03/13 05:45:28;;;;;;;1.47;0.73;;;;;;;;;;5089450;28;20560;-73
2021/03/13 05:47:55;;;;;;;1.07;0.80;;;;;;;;;;5081341;28;20465;-75
2021/03/13 05:50:22;;;;;;;1.87;0.90;;;;;;;;;;5089797;28;20456;-74
2021/03/13 05:52:54;;;;;;;2.30;1.00;;;;;;;;;;5090258;28;20468;-74
2021/03/13 05:55:21;;;;;;;1.80;0.90;;;;;;;;;;5085665;28;20787;-74
2021/03/13 05:57:50;;;;;;;1.53;0.90;;;;;;;;;;5090468;28;20468;-74
2021/03/13 06:00:18;;;;;;;2.20;1.00;;;;;;;;;;5095146;28;20452;-75
2021/03/13 06:02:45;;;;;;;1.20;1.00;;;;;;;;;;5092582;28;20449;-73
2021/03/13 06:05:12;;;;;;;1.90;0.90;;;;;;;;;;5090283;28;20226;-74
2021/03/13 06:07:40;;;;;;;1.67;0.90;;;;;;;;;;5087121;28;20450;-74
2021/03/13 06:10:07;;;;;;;1.40;0.80;;;;;;;;;;5090546;28;20494;-74
2021/03/13 06:12:34;;;;;;;2.10;1.03;;;;;;;;;;5085635;28;20469;-74
2021/03/13 06:15:02;;;;;;;1.67;1.05;;;;;;;;;;5093942;28;20476;-74
2021/03/13 06:17:29;;;;;;;4.45;0.93;;;;;;;;;;5094944;28;20196;-74
2021/03/13 06:19:56;;;;;;;1.27;0.90;;;;;;;;;;5094618;28;20283;-76
2021/03/13 06:22:38;;;;;;;1.90;1.00;;;;;;;;;;5093821;28;20497;-74
2021/03/13 06:25:19;;;;;;;1.20;0.93;;;;;;;;;;5092875;28;20481;-74
2021/03/13 06:27:47;;;;;;;3.50;0.97;;;;;;;;;;5089660;28;20192;-75
2021/03/13 06:30:16;;;;;;;2.70;0.90;;;;;;;;;;5092669;28;20528;-73
2021/03/13 06:32:44;;;;;;;1.73;0.90;;;;;;;;;;5092426;28;21032;-74
2021/03/13 06:35:19;;;;;;;1.50;0.80;;;;;;;;;;5092582;28;20222;-74
2021/03/13 06:37:46;;;;;;;1.33;0.83;;;;;;;;;;5092740;28;20488;-74
2021/03/13 06:40:25;;;;;;;2.60;0.90;;;;;;;;;;5094650;28;20529;-75
2021/03/13 06:42:52;;;;;;;2.90;1.00;;;;;;;;;;5091668;28;20556;-75
2021/03/13 06:45:20;;;;;;;1.83;1.00;;;;;;;;;;5089125;28;20914;-74
2021/03/13 06:47:47;;;;;;;2.08;1.00;;;;;;;;;;5091158;28;20446;-74
2021/03/13 06:50:15;;;;;;;2.87;0.90;;;;;;;;;;5090211;28;20339;-75
2021/03/13 06:52:42;;;;;;;1.50;0.80;;;;;;;;;;5090599;28;20453;-74
2021/03/13 06:55:15;;;;;;;1.63;0.80;;;;;;;;;;5092443;28;20552;-74
2021/03/13 06:57:42;;;;;;;1.63;0.80;;;;;;;;;;5084940;28;21250;-75
2021/03/13 07:00:09;;;;;;;2.03;1.10;;;;;;;;;;5091970;28;20579;-74
2021/03/13 07:02:38;;;;;;;1.30;0.97;;;;;;;;;;5094613;28;20920;-75
2021/03/13 07:05:07;;;;;;;1.70;0.80;;;;;;;;;;5091033;28;20485;-74
2021/03/13 07:07:34;;;;;;;1.00;0.73;;;;;;;;;;5122325;27;20450;-75
2021/03/13 07:10:04;;;;;;;2.33;0.80;;;;;;;;;;5089039;28;20537;-75
2021/03/13 07:12:34;;;;;;;1.57;0.80;;;;;;;;;;5091298;28;20534;-74
2021/03/13 07:15:13;;;;;;;1.10;0.90;;;;;;;;;;5091809;28;20514;-73
2021/03/13 07:17:42;;;;;;;0.97;0.80;;;;;;;;;;5086123;28;20894;-75
2021/03/13 07:20:09;;;;;;;1.17;1.07;;;;;;;;;;5087505;28;20445;-75
2021/03/13 07:22:37;;;;;;;1.67;1.10;;;;;;;;;;5093353;28;21019;-75
2021/03/13 07:25:03;;;;;;;0.93;0.80;;;;;;;;;;5093974;28;20568;-74
2021/03/13 07:27:34;;;;;;;1.43;0.97;;;;;;;;;;5090732;28;20935;-75
2021/03/13 07:30:01;;;;;;;1.30;0.80;;;;;;;;;;5086526;28;20454;-76
2021/03/13 07:32:30;;;;;;;5.33;0.90;;;;;;;;;;5085752;28;20451;-74
2021/03/13 07:35:01;;;;;;;2.70;0.90;;;;;;;;;;5090171;28;20459;-73
2021/03/13 07:37:29;;;;;;;1.57;0.90;;;;;;;;;;5091628;28;20503;-76
2021/03/13 07:39:57;;;;;;;1.10;0.90;;;;;;;;;;5092377;28;20533;-77
2021/03/13 07:42:24;;;;;;;1.43;0.90;;;;;;;;;;5091680;28;20487;-74
2021/03/13 07:44:51;;;;;;;1.20;0.80;;;;;;;;;;5092008;28;20570;-76
2021/03/13 07:47:19;;;;;;;1.57;0.90;;;;;;;;;;5093349;28;20446;-74
2021/03/13 07:49:46;;;;;;;2.80;1.20;;;;;;;;;;5093712;28;20455;-76
2021/03/13 07:52:15;;;;;;;3.20;1.00;;;;;;;;;;5090042;28;20435;-74
2021/03/13 07:54:43;;;;;;;2.50;1.63;;;;;;;;;;5089406;28;20493;-74
2021/03/13 07:57:11;;;;;;;1.27;0.90;;;;;;;;;;5089694;28;20882;-75
2021/03/13 07:59:42;;;;;;;0.93;0.70;;;;;;;;;;5074423;28;20496;-76
2021/03/13 08:02:09;;;;;;;1.43;0.70;;;;;;;;;;5090430;28;20452;-76
2021/03/13 08:04:51;;;;;;;1.67;1.17;;;;;;;;;;5082981;28;20834;-76
2021/03/13 08:07:18;;;;;;;2.17;1.10;;;;;;;;;;5087344;28;20282;-77
2021/03/13 08:09:45;;;;;;;4.80;1.17;;;;;;;;;;5081177;28;20193;-76
2021/03/13 08:12:12;;;;;;;5.28;1.60;;;;;;;;;;5090856;28;20625;-76
2021/03/13 08:14:39;;;;;;;1.95;1.15;;;;;;;;;;5090432;28;20221;-75
2021/03/13 08:17:06;;;;;;;4.50;1.17;;;;;;;;;;5091653;28;20696;-73
2021/03/13 08:19:37;;;;;;;1.92;1.13;;;;;;;;;;5089508;28;20199;-75
2021/03/13 08:22:12;;;;;;;4.80;1.10;;;;;;;;;;5087325;28;20241;-76
2021/03/13 08:24:42;;;;;;;1.90;0.88;;;;;;;;;;5077049;28;20222;-75
2021/03/13 08:27:10;;;;;;;4.32;1.70;;;;;;;;;;5090383;28;20212;-74
2021/03/13 08:29:52;;;;;;;2.17;1.20;;;;;;;;;;5083574;28;20194;-74
2021/03/13 08:32:19;;;;;;;1.67;1.50;;;;;;;;;;5081255;28;20196;-75
2021/03/13 08:34:46;;;;;;;2.70;2.22;;;;;;;;;;5090665;28;20206;-76
2021/03/13 08:37:17;;;;;;;4.53;2.25;;;;;;;;;;5086109;28;20201;-75
2021/03/13 08:39:44;;;;;;;2.25;1.80;;;;;;;;;;5083109;28;20221;-78
2021/03/13 08:42:28;;;;;;;2.42;1.48;;;;;;;;;;5084016;28;20287;-78
2021/03/13 08:45:09;;;;;;;4.00;2.17;;;;;;;;;;5087432;28;20321;-76
2021/03/13 08:47:42;;;;;;;6.78;1.77;;;;;;;;;;5089377;28;20202;-76
2021/03/13 08:50:09;;;;;;;2.55;1.80;;;;;;;;;;5083309;28;20191;-75
2021/03/13 08:52:36;;;;;;;4.55;1.60;;;;;;;;;;5084006;28;20291;-80
2021/03/13 08:55:04;;;;;;;2.20;1.30;;;;;;;;;;5091023;28;20317;-76
2021/03/13 08:57:39;;;;;;;2.15;1.25;;;;;;;;;;5089664;28;20368;-77
2021/03/13 09:00:07;;;;;;;3.13;1.50;;;;;;;;;;5090225;28;20297;-76
2021/03/13 09:02:36;;;;;;;2.20;1.20;;;;;;;;;;5083594;28;20653;-76
2021/03/13 09:05:04;;;;;;;2.30;1.60;;;;;;;;;;5088395;28;20481;-75
2021/03/13 09:07:31;;;;;;;1.50;1.13;;;;;;;;;;5087652;28;20197;-75
2021/03/13 09:09:58;;;;;;;2.53;1.77;;;;;;;;;;5080270;28;20435;-76
2021/03/13 09:12:28;;;;;;;2.67;1.50;;;;;;;;;;5088363;28;20452;-77
2021/03/13 09:14:55;;;;;;;7.40;1.43;;;;;;;;;;5120089;27;20462;-75
2021/03/13 09:17:23;;;;;;;1.97;1.60;;;;;;;;;;5088259;28;20447;-73
2021/03/13 09:19:51;;;;;;;6.27;1.53;;;;;;;;;;5089100;28;20445;-76
2021/03/13 09:22:18;;;;;;;4.40;1.63;;;;;;;;;;5089197;28;20470;-75
2021/03/13 09:24:51;;;;;;;3.60;1.40;;;;;;;;;;5118763;28;20482;-77
2021/03/13 09:27:18;;;;;;;4.10;1.50;;;;;;;;;;5088051;28;20454;-75
2021/03/13 09:29:46;;;;;;;2.63;1.43;;;;;;;;;;5088837;28;20526;-75
2021/03/13 09:32:14;;;;;;;4.45;1.58;;;;;;;;;;5089247;28;20455;-77
2021/03/13 09:34:41;;;;;;;12.00;3.17;;;;;;;;;;5088472;28;20305;-74
2021/03/13 09:37:11;;;;;;;3.83;1.50;;;;;;;;;;5088156;28;20559;-74
2021/03/13 09:39:38;;;;;;;3.63;1.57;;;;;;;;;;5094453;28;20435;-74
2021/03/13 09:42:06;;;;;;;4.57;2.23;;;;;;;;;;5095948;28;20445;-74
2021/03/13 09:44:34;;;;;;;7.37;2.30;;;;;;;;;;5091836;28;20486;-74
2021/03/13 09:47:02;;;;;;;5.00;1.73;;;;;;;;;;5089907;28;20577;-74
2021/03/13 09:49:29;;;;;;;6.67;3.00;;;;;;;;;;5090357;28;20477;-74
2021/03/13 09:51:55;;;;;;;4.50;2.40;;;;;;;;;;5092695;28;20887;-75
2021/03/13 09:54:22;;;;;;;4.60;2.03;;;;;;;;;;5091246;28;20455;-79
2021/03/13 09:56:49;;;;;;;3.53;2.50;;;;;;;;;;5088867;28;20494;-76
2021/03/13 09:59:18;;;;;;;6.83;1.97;;;;;;;;;;5093045;28;20942;-77
2021/03/13 10:01:45;;;;;;;2.40;1.50;;;;;;;;;;5095281;28;20446;-77
2021/03/13 10:04:13;;;;;;;3.93;1.43;;;;;;;;;;5087775;28;20477;-77
2021/03/13 10:06:41;;;;;;;4.20;1.83;;;;;;;;;;5094568;28;20538;-79
2021/03/13 10:09:11;;;;;;;6.93;1.70;;;;;;;;;;5094841;28;20529;-76
2021/03/13 10:11:41;;;;;;;4.20;1.70;;;;;;;;;;5092413;28;20443;-75
2021/03/13 10:14:23;;;;;;;4.17;1.60;;;;;;;;;;5089258;28;20466;-74
2021/03/13 10:16:59;;;;;;;7.17;2.23;;;;;;;;;;5100764;28;20485;-75
2021/03/13 10:19:40;;;;;;;4.30;2.23;;;;;;;;;;5075013;28;20447;-74
2021/03/13 10:22:09;;;;;;;4.00;1.57;;;;;;;;;;5104401;28;20455;-74
2021/03/13 10:24:44;;;;;;;3.97;1.70;;;;;;;;;;5094288;28;20478;-74
2021/03/13 10:27:11;;;;;;;5.60;2.40;;;;;;;;;;5095590;28;21013;-74
2021/03/13 10:29:38;;;;;;;4.80;1.93;;;;;;;;;;5095066;28;20959;-74
2021/03/13 10:32:05;;;;;;;4.63;1.70;;;;;;;;;;5095176;28;20478;-74
2021/03/13 10:34:36;;;;;;;3.80;2.00;;;;;;;;;;5090968;28;20458;-75
2021/03/13 10:37:03;;;;;;;5.57;2.57;;;;;;;;;;5091918;28;20435;-75
2021/03/13 10:39:30;;;;;;;4.77;2.10;;;;;;;;;;5093225;28;20449;-74
2021/03/13 10:42:00;;;;;;;5.50;2.50;;;;;;;;;;5093040;28;20450;-75
2021/03/13 10:44:27;;;;;;;5.90;1.97;;;;;;;;;;5092296;28;20481;-75
2021/03/13 10:46:53;;;;;;;8.03;3.13;;;;;;;;;;5094579;28;20933;-74
2021/03/13 10:49:26;;;;;;;7.23;3.13;;;;;;;;;;5094960;28;20807;-75
2021/03/13 10:51:53;;;;;;;5.83;1.83;;;;;;;;;;5095238;28;20726;-76
2021/03/13 10:54:21;;;;;;;3.47;1.70;;;;;;;;;;5095057;28;21006;-75
2021/03/13 10:56:49;;;;;;;5.17;2.30;;;;;;;;;;5123908;27;20458;-74
2021/03/13 10:59:16;;;;;;;7.30;1.80;;;;;;;;;;5090248;28;21015;-73
2021/03/13 11:01:44;;;;;;;8.63;1.80;;;;;;;;;;5072296;28;20998;-74
2021/03/13 11:04:11;;;;;;;4.97;1.73;;;;;;;;;;5072408;28;20464;-75
2021/03/13 11:06:38;;;;;;;4.80;2.30;;;;;;;;;;5073032;28;20791;-74
2021/03/13 11:09:05;;;;;;;13.43;2.80;;;;;;;;;;5088342;28;20937;-75
2021/03/13 11:11:32;;;;;;;6.30;2.10;;;;;;;;;;5093740;28;20478;-76
2021/03/13 11:14:00;;;;;;;7.53;2.30;;;;;;;;;;5094304;28;20535;-74
2021/03/13 11:16:27;;;;;;;7.90;2.10;;;;;;;;;;5094756;28;20526;-76
2021/03/13 11:18:54;;;;;;;4.70;1.47;;;;;;;;;;5092004;28;20518;-76
2021/03/13 11:21:22;;;;;;;3.23;1.80;;;;;;;;;;5088910;28;20496;-75
2021/03/13 11:23:49;;;;;;;10.30;2.67;;;;;;;;;;5072054;28;20547;-75
2021/03/13 11:26:16;;;;;;;4.67;2.17;;;;;;;;;;5072182;28;20472;-76
2021/03/13 11:28:43;;;;;;;8.83;4.20;;;;;;;;;;5072057;28;20450;-74
2021/03/13 11:31:11;;;;;;;7.47;2.67;;;;;;;;;;5082211;28;20472;-75
2021/03/13 11:33:38;;;;;;;9.00;3.40;;;;;;;;;;5126739;27;20929;-75
2021/03/13 11:36:05;;;;;;;9.20;3.13;;;;;;;;;;5093581;28;20434;-73
2021/03/13 11:38:32;;;;;;;8.43;3.40;;;;;;;;;;5089359;28;20864;-77
2021/03/13 11:41:02;;;;;;;5.53;2.57;;;;;;;;;;5086976;28;20527;-76
2021/03/13 11:43:29;;;;;;;7.00;3.10;;;;;;;;;;5090905;28;21166;-75
2021/03/13 11:45:56;;;;;;;6.27;2.60;;;;;;;;;;5091717;28;20867;-76
2021/03/13 11:48:23;;;;;;;5.30;2.67;;;;;;;;;;5092262;28;20789;-77
2021/03/13 11:50:51;;;;;;;9.80;3.63;;;;;;;;;;5093367;28;20534;-76
2021/03/13 11:53:18;;;;;;;7.27;3.37;;;;;;;;;;5092474;28;20550;-75
2021/03/13 11:55:46;;;;;;;7.20;2.47;;;;;;;;;;5093636;28;20435;-75
2021/03/13 11:58:12;;;;;;;7.27;2.60;;;;;;;;;;5094101;28;20465;-77
2021/03/13 12:00:39;;;;;;;7.20;2.50;;;;;;;;;;5090193;28;20534;-77
2021/03/13 12:03:06;;;;;;;6.87;2.77;;;;;;;;;;5089072;28;20473;-80
2021/03/13 12:05:34;;;;;;;7.27;2.27;;;;;;;;;;5091502;28;21066;-80
2021/03/13 12:08:01;;;;;;;8.90;2.70;;;;;;;;;;5091490;28;20442;-78
2021/03/13 12:10:28;;;;;;;6.27;2.23;;;;;;;;;;5091455;28;20527;-77
2021/03/13 12:12:56;;;;;;;8.30;3.10;;;;;;;;;;5093131;28;20618;-79
2021/03/13 12:15:23;;;;;;;5.53;2.10;;;;;;;;;;5093109;28;20475;-78
2021/03/13 12:17:50;;;;;;;7.20;2.00;;;;;;;;;;5091592;28;20443;-79
2021/03/13 12:20:17;;;;;;;8.10;2.43;;;;;;;;;;5091652;28;20529;-80
2021/03/13 12:22:45;;;;;;;6.67;2.50;;;;;;;;;;5121820;27;20542;-80
2021/03/13 12:25:12;;;;;;;7.10;2.60;;;;;;;;;;5084409;28;20484;-76
2021/03/13 12:27:41;;;;;;;11.90;2.90;;;;;;;;;;5075154;28;20785;-78
2021/03/13 12:30:08;;;;;;;7.70;3.43;;;;;;;;;;5091027;28;20778;-75
2021/03/13 12:32:36;;;;;;;16.00;4.50;;;;;;;;;;5081345;28;20518;-76
2021/03/13 12:35:03;;;;;;;9.07;2.63;;;;;;;;;;5092416;28;20577;-75
2021/03/13 12:37:30;;;;;;;10.60;3.00;;;;;;;;;;5092251;28;20470;-80
2021/03/13 12:39:58;;;;;;;13.30;3.10;;;;;;;;;;5091463;28;20869;-77
2021/03/13 12:42:25;;;;;;;8.00;2.33;;;;;;;;;;5119954;27;20472;-79
2021/03/13 12:44:52;;;;;;;8.60;2.47;;;;;;;;;;5076222;28;20495;-75
2021/03/13 12:47:19;;;;;;;10.50;3.13;;;;;;;;;;5088350;28;20594;-80
2021/03/13 12:49:45;;;;;;;7.53;2.40;;;;;;;;;;5089965;28;20550;-77
2021/03/13 12:52:12;;;;;;;9.57;2.33;;;;;;;;;;5090499;28;20450;-75
2021/03/13 12:54:39;;;;;;;9.67;2.27;;;;;;;;;;5090805;28;20559;-75
2021/03/13 12:57:08;;;;;;;9.27;2.10;;;;;;;;;;5091225;28;20465;-75
2021/03/13 12:59:34;;;;;;;4.43;2.73;;;;;;;;;;5092675;28;20534;-77
2021/03/13 13:02:01;;;;;;;5.87;2.57;;;;;;;;;;5092080;28;20450;-80
2021/03/13 13:04:30;;;;;;;9.03;2.83;;;;;;;;;;5092588;28;20517;-75
2021/03/13 13:06:56;;;;;;;11.97;3.07;;;;;;;;;;5091936;28;20473;-79
2021/03/13 13:09:23;;;;;;;10.10;2.63;;;;;;;;;;5088189;28;20443;-75
2021/03/13 13:11:50;;;;;;;10.43;3.53;;;;;;;;;;5089166;28;20938;-79
2021/03/13 13:14:18;;;;;;;6.83;2.00;;;;;;;;;;5089380;28;20479;-82
2021/03/13 13:16:45;;;;;;;10.83;2.73;;;;;;;;;;5090250;28;20442;-75
2021/03/13 13:19:12;;;;;;;4.33;2.40;;;;;;;;;;5090788;28;20979;-77
2021/03/13 13:21:39;;;;;;;7.50;2.50;;;;;;;;;;5075335;28;20994;-76
2021/03/13 13:24:06;;;;;;;7.00;2.20;;;;;;;;;;5072390;28;21032;-77
2021/03/13 13:26:33;;;;;;;9.00;2.50;;;;;;;;;;5091842;28;20446;-77
2021/03/13 13:29:00;;;;;;;9.77;2.57;;;;;;;;;;5091960;28;20816;-81
2021/03/13 13:31:27;;;;;;;8.27;2.80;;;;;;;;;;5089244;28;20486;-80
2021/03/13 13:33:54;;;;;;;5.90;1.90;;;;;;;;;;5087299;28;20838;-73
2021/03/13 13:36:22;;;;;;;15.87;3.10;;;;;;;;;;5079848;28;20992;-74
2021/03/13 13:38:49;;;;;;;7.20;2.37;;;;;;;;;;5084671;28;20443;-74
2021/03/13 13:41:16;;;;;;;11.53;2.07;;;;;;;;;;5090545;28;20533;-75
2021/03/13 13:43:43;;;;;;;7.33;2.40;;;;;;;;;;5091691;28;20573;-75
2021/03/13 13:46:09;;;;;;;4.10;2.20;;;;;;;;;;5091998;28;20581;-75
2021/03/13 13:48:37;;;;;;;10.33;3.10;;;;;;;;;;5092105;28;20534;-73
2021/03/13 13:51:04;;;;;;;3.63;1.80;;;;;;;;;;5091978;28;21022;-74
2021/03/13 13:53:31;;;;;;;5.47;2.00;;;;;;;;;;5089736;28;20910;-72
2021/03/13 13:55:58;;;;;;;6.20;2.63;;;;;;;;;;5087561;28;20518;-77
2021/03/13 13:58:25;;;;;;;6.80;2.13;;;;;;;;;;5089343;28;20951;-75
2021/03/13 14:00:52;;;;;;;4.90;2.00;;;;;;;;;;5090128;28;20533;-74
2021/03/13 14:03:19;;;;;;;5.37;2.20;;;;;;;;;;5089866;28;20497;-73
2021/03/13 14:05:47;;;;;;;5.50;1.50;;;;;;;;;;5090832;28;20892;-74
2021/03/13 14:08:13;;;;;;;3.07;1.70;;;;;;;;;;5092101;28;20429;-74
2021/03/13 14:10:40;;;;;;;6.10;1.80;;;;;;;;;;5091531;28;20474;-76
2021/03/13 14:13:07;;;;;;;4.80;2.23;;;;;;;;;;5091710;28;20837;-75
2021/03/13 14:15:34;;;;;;;6.13;1.80;;;;;;;;;;5091420;28;20442;-72
2021/03/13 14:18:01;;;;;;;6.27;1.60;;;;;;;;;;5086975;28;21036;-74
2021/03/13 14:20:28;;;;;;;8.73;2.47;;;;;;;;;;5084292;28;20448;-73
2021/03/13 14:22:55;;;;;;;5.27;1.80;;;;;;;;;;5073006;28;20534;-74
2021/03/13 14:25:22;;;;;;;8.20;2.30;;;;;;;;;;5083447;28;20514;-73
2021/03/13 14:27:49;;;;;;;4.80;1.90;;;;;;;;;;5094226;28;20465;-76
2021/03/13 14:30:17;;;;;;;3.60;1.80;;;;;;;;;;5095354;28;20456;-74
2021/03/13 14:32:44;;;;;;;9.73;2.70;;;;;;;;;;5094856;28;20534;-73
2021/03/13 14:35:12;;;;;;;4.53;1.60;;;;;;;;;;5095036;28;20545;-73
2021/03/13 14:37:41;;;;;;;5.47;2.00;;;;;;;;;;5094902;28;20534;-75
2021/03/13 14:40:10;;;;;;;6.47;2.00;;;;;;;;;;5091280;28;20534;-73
2021/03/13 14:42:37;;;;;;;9.93;2.60;;;;;;;;;;5091812;28;20540;-75
2021/03/13 14:45:04;;;;;;;9.47;1.97;;;;;;;;;;5092334;28;20471;-72
2021/03/13 14:47:31;;;;;;;5.33;2.00;;;;;;;;;;5091757;28;20475;-74